createdAt,value
2018-11-10T00:00:18.505Z,97713.76
2018-11-10T00:02:48.230Z,97706.27
2018-11-10T00:05:17.659Z,97703.33
2018-11-10T00:07:46.561Z,97703.89
2018-11-10T00:10:15.760Z,97696.86
2018-11-10T00:12:45.188Z,97695.28
2018-11-10T00:15:15.143Z,97698.44
2018-11-10T00:17:44.322Z,97694.92
2018-11-10T00:20:13.296Z,97700.26
2018-11-10T00:22:43.134Z,97704.02
2018-11-10T00:25:13.018Z,97698.44
2018-11-10T00:27:43.200Z,97699.48
2018-11-10T00:30:13.698Z,97690.81
2018-11-10T00:32:43.266Z,97685.02
2018-11-10T00:35:11.989Z,97677.03
2018-11-10T00:37:40.754Z,97676.55
2018-11-10T00:40:11.576Z,97666.35
2018-11-10T00:42:41.143Z,97671.66
2018-11-10T00:45:10.803Z,97670.00
2018-11-10T00:47:39.849Z,97670.77
2018-11-10T00:50:09.368Z,97665.72
2018-11-10T00:52:38.585Z,97665.38
2018-11-10T00:55:08.520Z,97660.58
2018-11-10T00:57:37.351Z,97662.48
2018-11-10T01:00:06.361Z,97661.64
2018-11-10T01:02:35.234Z,97655.74
2018-11-10T01:05:04.106Z,97653.86
2018-11-10T01:07:32.901Z,97646.41
2018-11-10T01:10:01.904Z,97643.53
2018-11-10T01:12:30.879Z,97641.88
2018-11-10T01:15:00.499Z,97639.14
2018-11-10T01:17:29.455Z,97637.02
2018-11-10T01:19:58.443Z,97639.68
2018-11-10T01:22:27.764Z,97642.81
2018-11-10T01:24:57.169Z,97638.30
2018-11-10T01:27:26.545Z,97644.73
2018-11-10T01:29:55.769Z,97647.84
2018-11-10T01:32:24.874Z,97647.86
2018-11-10T01:34:55.165Z,97640.95
2018-11-10T01:37:24.284Z,97634.28
2018-11-10T01:39:53.205Z,97636.12
2018-11-10T01:42:23.884Z,97632.95
2018-11-10T01:44:53.111Z,97620.41
2018-11-10T01:47:22.292Z,97624.97
2018-11-10T01:49:51.405Z,97626.17
2018-11-10T01:52:20.644Z,97614.44
2018-11-10T01:54:49.701Z,97617.91
2018-11-10T01:57:18.782Z,97612.09
2018-11-10T01:59:47.615Z,97607.27
2018-11-10T02:02:16.592Z,97602.74
2018-11-10T02:04:45.646Z,97600.31
2018-11-10T02:07:15.880Z,97596.31
2018-11-10T02:09:45.160Z,97586.73
2018-11-10T02:12:14.388Z,97578.42
2018-11-10T02:14:43.278Z,97573.11
2018-11-10T02:17:12.140Z,97564.50
2018-11-10T02:19:40.780Z,97544.63
2018-11-10T02:22:10.290Z,97543.05
2018-11-10T02:24:39.188Z,97551.09
2018-11-10T02:27:13.849Z,97554.52
2018-11-10T02:29:42.856Z,97556.70
2018-11-10T02:32:12.021Z,97566.19
2018-11-10T02:34:40.885Z,97560.86
2018-11-10T02:37:10.500Z,97586.16
2018-11-10T02:39:39.484Z,97572.36
2018-11-10T02:42:08.315Z,97550.83
2018-11-10T02:44:37.277Z,97545.53
2018-11-10T02:47:06.664Z,97544.27
2018-11-10T02:49:35.765Z,97538.15
2018-11-10T02:52:05.794Z,97540.80
2018-11-10T02:54:34.834Z,97558.38
2018-11-10T02:57:03.996Z,97573.84
2018-11-10T02:59:32.741Z,97573.35
2018-11-10T03:02:01.602Z,97566.99
2018-11-10T03:04:30.145Z,97559.02
2018-11-10T03:06:59.190Z,97554.81
2018-11-10T03:09:28.721Z,97572.46
2018-11-10T03:11:58.135Z,97591.13
2018-11-10T03:14:27.016Z,97571.66
2018-11-10T03:16:56.124Z,97552.41
2018-11-10T03:19:25.296Z,97550.05
2018-11-10T03:21:54.876Z,97555.65
2018-11-10T03:24:23.656Z,97549.81
2018-11-10T03:26:52.983Z,97533.75
2018-11-10T03:29:22.160Z,97502.26
2018-11-10T03:31:52.021Z,97509.20
2018-11-10T03:34:20.724Z,97541.02
2018-11-10T03:36:49.707Z,97554.08
2018-11-10T03:39:19.289Z,97553.83
2018-11-10T03:41:48.041Z,97561.58
2018-11-10T03:44:17.786Z,97559.46
2018-11-10T03:46:46.473Z,97554.66
2018-11-10T03:49:16.015Z,97560.29
2018-11-10T03:51:45.039Z,97556.03
2018-11-10T03:54:13.857Z,97548.81
2018-11-10T03:56:42.384Z,97557.11
2018-11-10T03:59:11.905Z,97545.35
2018-11-10T04:01:40.867Z,97547.77
2018-11-10T04:04:11.329Z,97550.98
2018-11-10T04:06:40.639Z,97540.30
2018-11-10T04:09:09.995Z,97541.09
2018-11-10T04:11:39.020Z,97532.82
2018-11-10T04:14:08.096Z,97530.94
2018-11-10T04:16:37.469Z,97523.47
2018-11-10T04:19:06.662Z,97519.74
2018-11-10T04:21:35.535Z,97519.47
2018-11-10T04:24:05.135Z,97522.14
2018-11-10T04:26:34.015Z,97526.67
2018-11-10T04:29:03.566Z,97525.34
2018-11-10T04:31:32.281Z,97516.52
2018-11-10T04:34:01.045Z,97514.38
2018-11-10T04:36:29.932Z,97508.78
2018-11-10T04:38:59.551Z,97501.02
2018-11-10T04:41:28.343Z,97499.41
2018-11-10T04:43:58.037Z,97498.34
2018-11-10T04:46:27.416Z,97484.45
2018-11-10T04:48:57.013Z,97479.63
2018-11-10T04:51:25.579Z,97480.70
2018-11-10T04:53:54.691Z,97479.89
2018-11-10T04:56:23.657Z,97472.15
2018-11-10T04:58:53.394Z,97460.12
2018-11-10T05:01:22.216Z,97442.98
2018-11-10T05:03:50.962Z,97437.36
2018-11-10T05:06:19.936Z,97453.41
2018-11-10T05:08:49.236Z,97449.92
2018-11-10T05:11:18.329Z,97457.94
2018-11-10T05:13:47.265Z,97459.53
2018-11-10T05:16:16.790Z,97464.34
2018-11-10T05:18:46.013Z,97463.29
2018-11-10T05:21:14.691Z,97466.73
2018-11-10T05:23:43.581Z,97465.40
2018-11-10T05:26:12.331Z,97454.98
2018-11-10T05:28:41.095Z,97451.21
2018-11-10T05:31:10.321Z,97457.37
2018-11-10T05:33:39.429Z,97458.14
2018-11-10T05:36:08.556Z,97455.75
2018-11-10T05:38:37.204Z,97452.83
2018-11-10T05:41:06.307Z,97456.84
2018-11-10T05:43:35.370Z,97456.31
2018-11-10T05:46:04.627Z,97455.51
2018-11-10T05:48:33.871Z,97456.31
2018-11-10T05:51:02.856Z,97459.23
2018-11-10T05:53:32.262Z,97465.36
2018-11-10T05:56:01.518Z,97464.30
2018-11-10T05:58:30.875Z,97471.80
2018-11-10T06:00:59.857Z,97474.47
2018-11-10T06:03:28.699Z,97472.32
2018-11-10T06:05:57.507Z,97480.06
2018-11-10T06:08:27.588Z,97475.77
2018-11-10T06:10:56.795Z,97469.60
2018-11-10T06:13:25.997Z,97476.56
2018-11-10T06:15:55.144Z,97482.45
2018-11-10T06:18:24.473Z,97476.01
2018-11-10T06:20:53.369Z,97473.33
2018-11-10T06:23:23.010Z,97477.86
2018-11-10T06:25:52.240Z,97474.94
2018-11-10T06:28:22.441Z,97481.34
2018-11-10T06:30:51.577Z,97483.45
2018-11-10T06:33:20.810Z,97487.47
2018-11-10T06:35:50.239Z,97476.50
2018-11-10T06:38:19.355Z,97479.66
2018-11-10T06:40:48.288Z,97480.17
2018-11-10T06:43:17.030Z,97483.09
2018-11-10T06:45:46.267Z,97482.82
2018-11-10T06:48:15.132Z,97477.43
2018-11-10T06:50:44.531Z,97474.22
2018-11-10T06:53:13.252Z,97481.44
2018-11-10T06:55:42.151Z,97477.12
2018-11-10T06:58:11.001Z,97481.92
2018-11-10T07:00:39.766Z,97472.80
2018-11-10T07:03:08.529Z,97476.52
2018-11-10T07:05:37.806Z,97477.31
2018-11-10T07:08:07.286Z,97470.34
2018-11-10T07:10:36.241Z,97469.28
2018-11-10T07:13:05.857Z,97469.80
2018-11-10T07:15:34.783Z,97469.80
2018-11-10T07:18:03.885Z,97479.69
2018-11-10T07:20:32.987Z,97479.92
2018-11-10T07:23:02.315Z,97481.23
2018-11-10T07:25:31.172Z,97498.62
2018-11-10T07:28:00.103Z,97494.81
2018-11-10T07:30:29.056Z,97480.55
2018-11-10T07:32:58.259Z,97478.13
2018-11-10T07:35:27.535Z,97482.05
2018-11-10T07:37:56.669Z,97484.37
2018-11-10T07:40:25.953Z,97478.70
2018-11-10T07:42:55.069Z,97477.56
2018-11-10T07:45:28.181Z,97479.42
2018-11-10T07:47:58.908Z,97479.66
2018-11-10T07:50:28.397Z,97482.78
2018-11-10T07:52:58.254Z,97480.88
2018-11-10T07:55:27.701Z,97476.56
2018-11-10T07:57:57.568Z,97475.20
2018-11-10T08:00:27.553Z,97476.53
2018-11-10T08:02:57.671Z,97469.53
2018-11-10T08:05:27.037Z,97477.02
2018-11-10T08:07:56.387Z,97479.95
2018-11-10T08:10:25.723Z,97480.48
2018-11-10T08:12:55.068Z,97492.61
2018-11-10T08:15:24.678Z,97492.53
2018-11-10T08:17:54.143Z,97497.66
2018-11-10T08:20:23.293Z,97504.79
2018-11-10T08:22:53.034Z,97505.80
2018-11-10T08:25:21.997Z,97507.41
2018-11-10T08:27:51.017Z,97497.63
2018-11-10T08:30:20.121Z,97506.09
2018-11-10T08:32:49.451Z,97505.49
2018-11-10T08:35:18.512Z,97498.94
2018-11-10T08:37:47.401Z,97496.73
2018-11-10T08:40:17.181Z,97504.15
2018-11-10T08:42:46.731Z,97497.95
2018-11-10T08:45:16.316Z,97492.59
2018-11-10T08:47:45.834Z,97501.89
2018-11-10T08:50:16.040Z,97509.52
2018-11-10T08:52:46.068Z,97507.22
2018-11-10T08:55:15.177Z,97507.84
2018-11-10T08:57:44.694Z,97496.86
2018-11-10T09:00:13.899Z,97497.09
2018-11-10T09:02:42.972Z,97495.95
2018-11-10T09:05:13.231Z,97499.85
2018-11-10T09:07:42.913Z,97499.75
2018-11-10T09:10:13.491Z,97508.73
2018-11-10T09:12:42.324Z,97502.32
2018-11-10T09:15:14.359Z,97504.12
2018-11-10T09:17:43.465Z,97505.70
2018-11-10T09:20:14.463Z,97500.81
2018-11-10T09:22:43.781Z,97494.81
2018-11-10T09:25:14.596Z,97489.98
2018-11-10T09:27:43.878Z,97485.05
2018-11-10T09:30:16.818Z,97491.86
2018-11-10T09:32:46.356Z,97490.61
2018-11-10T09:35:16.816Z,97493.48
2018-11-10T09:37:45.754Z,97490.80
2018-11-10T09:40:15.664Z,97489.39
2018-11-10T09:42:45.246Z,97486.41
2018-11-10T09:45:16.243Z,97489.20
2018-11-10T09:47:45.533Z,97484.00
2018-11-10T09:50:17.019Z,97484.25
2018-11-10T09:52:47.140Z,97474.84
2018-11-10T09:55:17.178Z,97460.02
2018-11-10T09:57:46.276Z,97466.61
2018-11-10T10:00:17.513Z,97474.02
2018-11-10T10:02:47.274Z,97465.50
2018-11-10T10:05:15.869Z,97458.35
2018-11-10T10:07:45.231Z,97464.83
2018-11-10T10:10:16.219Z,97470.64
2018-11-10T10:12:46.292Z,97465.33
2018-11-10T10:15:16.608Z,97466.45
2018-11-10T10:17:45.952Z,97463.99
2018-11-10T10:20:16.988Z,97457.02
2018-11-10T10:22:47.826Z,97449.34
2018-11-10T10:25:18.083Z,97448.45
2018-11-10T10:27:47.793Z,97441.92
2018-11-10T10:30:18.753Z,97438.81
2018-11-10T10:32:48.682Z,97442.46
2018-11-10T10:35:18.453Z,97437.92
2018-11-10T10:37:48.538Z,97432.48
2018-11-10T10:40:18.027Z,97433.34
2018-11-10T10:42:47.441Z,97433.72
2018-11-10T10:45:21.874Z,97437.59
2018-11-10T10:47:54.278Z,97426.73
2018-11-10T10:50:23.682Z,97419.02
2018-11-10T10:52:52.577Z,97428.39
2018-11-10T10:55:22.008Z,97418.46
2018-11-10T10:57:51.387Z,97415.98
2018-11-10T11:00:25.368Z,97413.98
2018-11-10T11:02:56.240Z,97406.60
2018-11-10T11:05:30.244Z,97407.16
2018-11-10T11:07:59.573Z,97398.64
2018-11-10T11:10:28.774Z,97397.08
2018-11-10T11:12:57.998Z,97392.59
2018-11-10T11:15:27.284Z,97394.94
2018-11-10T11:17:56.710Z,97396.70
2018-11-10T11:20:25.956Z,97396.66
2018-11-10T11:22:55.056Z,97382.89
2018-11-10T11:25:23.966Z,97382.42
2018-11-10T11:27:53.632Z,97382.80
2018-11-10T11:30:22.903Z,97389.37
2018-11-10T11:32:52.372Z,97393.58
2018-11-10T11:35:22.231Z,97381.87
2018-11-10T11:37:51.237Z,97379.16
2018-11-10T11:40:20.137Z,97381.31
2018-11-10T11:42:49.854Z,97379.95
2018-11-10T11:45:19.019Z,97370.08
2018-11-10T11:47:48.407Z,97367.64
2018-11-10T11:50:17.542Z,97373.63
2018-11-10T11:52:47.597Z,97364.58
2018-11-10T11:55:16.770Z,97360.62
2018-11-10T11:57:46.103Z,97358.83
2018-11-10T12:00:16.342Z,97354.69
2018-11-10T12:02:45.775Z,97357.44
2018-11-10T12:05:15.929Z,97355.72
2018-11-10T12:07:46.498Z,97356.03
2018-11-10T12:10:17.094Z,97357.63
2018-11-10T12:12:46.344Z,97352.98
2018-11-10T12:15:17.058Z,97346.95
2018-11-10T12:17:46.664Z,97344.66
2018-11-10T12:20:16.190Z,97347.34
2018-11-10T12:22:45.158Z,97340.91
2018-11-10T12:25:14.836Z,97345.98
2018-11-10T12:27:44.303Z,97338.31
2018-11-10T12:30:13.879Z,97339.13
2018-11-10T12:32:42.810Z,97335.42
2018-11-10T12:35:13.376Z,97335.55
2018-11-10T12:37:43.492Z,97337.64
2018-11-10T12:40:13.685Z,97340.33
2018-11-10T12:42:43.155Z,97331.30
2018-11-10T12:45:13.264Z,97332.39
2018-11-10T12:47:42.912Z,97332.36
2018-11-10T12:50:13.952Z,97333.61
2018-11-10T12:52:43.866Z,97326.94
2018-11-10T12:55:14.871Z,97330.08
2018-11-10T12:57:48.054Z,97336.27
2018-11-10T13:00:19.076Z,97331.02
2018-11-10T13:02:49.399Z,97327.85
2018-11-10T13:05:19.309Z,97333.10
2018-11-10T13:07:48.895Z,97333.50
2018-11-10T13:10:18.198Z,97327.38
2018-11-10T13:12:47.201Z,97336.58
2018-11-10T13:15:16.388Z,97325.78
2018-11-10T13:17:45.797Z,97324.96
2018-11-10T13:20:15.738Z,97322.95
2018-11-10T13:22:44.989Z,97322.86
2018-11-10T13:25:14.673Z,97328.66
2018-11-10T13:27:43.693Z,97329.66
2018-11-10T13:30:14.433Z,97324.17
2018-11-10T13:32:43.725Z,97326.17
2018-11-10T13:35:14.152Z,97333.87
2018-11-10T13:37:43.364Z,97327.80
2018-11-10T13:40:13.482Z,97325.52
2018-11-10T13:42:42.975Z,97327.73
2018-11-10T13:45:13.682Z,97330.88
2018-11-10T13:47:43.314Z,97328.11
2018-11-10T13:50:14.228Z,97319.77
2018-11-10T13:52:44.866Z,97323.20
2018-11-10T13:55:14.749Z,97327.34
2018-11-10T13:57:43.779Z,97324.66
2018-11-10T14:00:14.773Z,97324.50
2018-11-10T14:02:43.891Z,97323.89
2018-11-10T14:05:13.207Z,97332.25
2018-11-10T14:07:43.179Z,97323.55
2018-11-10T14:10:13.794Z,97322.08
2018-11-10T14:12:44.254Z,97323.00
2018-11-10T14:15:13.319Z,97324.13
2018-11-10T14:17:42.752Z,97320.20
2018-11-10T14:20:13.375Z,97321.56
2018-11-10T14:22:42.843Z,97321.66
2018-11-10T14:25:14.021Z,97320.94
2018-11-10T14:27:44.647Z,97317.79
2018-11-10T14:30:15.435Z,97325.19
2018-11-10T14:32:46.931Z,97324.02
2018-11-10T14:35:15.882Z,97318.66
2018-11-10T14:39:10.072Z,97322.98
2018-11-10T14:41:39.047Z,97320.41
2018-11-10T14:44:09.252Z,97325.23
2018-11-10T14:46:38.604Z,97332.30
2018-11-10T14:49:08.309Z,97331.94
2018-11-10T14:51:37.894Z,97336.95
2018-11-10T14:54:06.671Z,97340.27
2018-11-10T14:56:35.541Z,97335.98
2018-11-10T14:59:05.335Z,97337.23
2018-11-10T15:01:34.271Z,97338.55
2018-11-10T15:04:03.191Z,97334.92
2018-11-10T15:06:32.845Z,97334.06
2018-11-10T15:09:01.790Z,97334.74
2018-11-10T15:11:30.775Z,97343.93
2018-11-10T15:14:00.044Z,97350.89
2018-11-10T15:16:29.357Z,97347.94
2018-11-10T15:18:58.611Z,97354.53
2018-11-10T15:21:27.645Z,97349.31
2018-11-10T15:23:56.434Z,97348.62
2018-11-10T15:26:25.125Z,97346.69
2018-11-10T15:28:53.911Z,97349.51
2018-11-10T15:31:22.765Z,97352.44
2018-11-10T15:33:51.771Z,97349.31
2018-11-10T15:37:52.747Z,97343.38
2018-11-10T15:40:23.367Z,97349.62
2018-11-10T15:42:53.121Z,97351.08
2018-11-10T15:45:22.334Z,97350.83
2018-11-10T15:47:51.647Z,97355.03
2018-11-10T15:50:20.771Z,97358.56
2018-11-10T15:52:50.069Z,97361.19
2018-11-10T15:55:19.300Z,97360.39
2018-11-10T15:57:48.353Z,97360.94
2018-11-10T16:00:18.845Z,97361.57
2018-11-10T16:02:47.804Z,97356.75
2018-11-10T16:05:17.135Z,97355.77
2018-11-10T16:07:46.299Z,97360.17
2018-11-10T16:10:15.101Z,97358.34
2018-11-10T16:12:45.670Z,97362.78
2018-11-10T16:15:17.115Z,97369.44
2018-11-10T16:17:46.176Z,97361.93
2018-11-10T16:20:17.360Z,97361.75
2018-11-10T16:22:48.535Z,97364.68
2018-11-10T16:25:17.923Z,97366.19
2018-11-10T16:27:47.211Z,97362.92
2018-11-10T16:30:17.364Z,97373.03
2018-11-10T16:32:46.401Z,97367.02
2018-11-10T16:35:15.532Z,97369.58
2018-11-10T16:37:44.936Z,97373.73
2018-11-10T16:40:16.505Z,97369.88
2018-11-10T16:42:46.814Z,97365.13
2018-11-10T16:45:16.376Z,97362.17
2018-11-10T16:47:45.376Z,97366.84
2018-11-10T16:50:14.272Z,97357.41
2018-11-10T16:52:43.946Z,97358.52
2018-11-10T16:55:13.873Z,97365.78
2018-11-10T16:57:43.387Z,97366.94
2018-11-10T17:00:16.195Z,97375.73
2018-11-10T17:02:45.023Z,97374.14
2018-11-10T17:05:13.963Z,97375.70
2018-11-10T17:07:42.856Z,97375.40
2018-11-10T17:10:14.670Z,97368.62
2018-11-10T17:12:43.795Z,97379.28
2018-11-10T17:15:14.088Z,97378.75
2018-11-10T17:17:43.403Z,97377.28
2018-11-10T17:20:15.355Z,97382.02
2018-11-10T17:22:44.643Z,97384.94
2018-11-10T17:25:14.704Z,97382.40
2018-11-10T17:27:43.919Z,97392.30
2018-11-10T17:30:15.059Z,97390.94
2018-11-10T17:32:44.135Z,97393.95
2018-11-10T17:35:13.925Z,97397.55
2018-11-10T17:37:42.695Z,97395.72
2018-11-10T17:40:12.412Z,97395.88
2018-11-10T17:42:41.404Z,97402.11
2018-11-10T17:45:15.410Z,97406.42
2018-11-10T17:47:44.478Z,97412.00
2018-11-10T17:50:14.565Z,97414.70
2018-11-10T17:52:44.109Z,97406.52
2018-11-10T17:55:13.895Z,97405.16
2018-11-10T17:57:43.267Z,97403.55
2018-11-10T18:00:12.741Z,97401.98
2018-11-10T18:02:41.634Z,97400.23
2018-11-10T18:05:12.796Z,97392.41
2018-11-10T18:07:42.166Z,97401.11
2018-11-10T18:10:13.101Z,97396.88
2018-11-10T18:12:42.538Z,97405.33
2018-11-10T18:15:13.272Z,97406.50
2018-11-10T18:17:42.723Z,97413.52
2018-11-10T18:20:13.338Z,97415.68
2018-11-10T18:22:42.530Z,97426.58
2018-11-10T18:25:11.682Z,97411.30
2018-11-10T18:27:41.766Z,97417.58
2018-11-10T18:30:12.603Z,97414.22
2018-11-10T18:32:41.530Z,97413.99
2018-11-10T18:35:11.208Z,97415.49
2018-11-10T18:37:40.676Z,97417.97
2018-11-10T18:40:11.114Z,97419.33
2018-11-10T18:42:40.256Z,97419.95
2018-11-10T18:45:10.540Z,97431.86
2018-11-10T18:47:40.010Z,97430.91
2018-11-10T18:50:11.302Z,97427.02
2018-11-10T18:52:40.121Z,97425.42
2018-11-10T18:55:10.207Z,97420.75
2018-11-10T18:57:39.590Z,97419.14
2018-11-10T19:00:10.491Z,97424.40
2018-11-10T19:02:39.546Z,97414.12
2018-11-10T19:05:10.132Z,97411.17
2018-11-10T19:07:39.077Z,97414.92
2018-11-10T19:10:09.777Z,97408.86
2018-11-10T19:12:39.608Z,97412.77
2018-11-10T19:15:11.105Z,97412.50
2018-11-10T19:17:40.698Z,97408.42
2018-11-10T19:20:10.845Z,97407.07
2018-11-10T19:22:42.221Z,97407.23
2018-11-10T19:25:13.405Z,97408.34
2018-11-10T19:27:42.677Z,97412.64
2018-11-10T19:30:14.738Z,97412.88
2018-11-10T19:32:45.072Z,97413.02
2018-11-10T19:35:15.336Z,97417.88
2018-11-10T19:37:44.833Z,97413.61
2018-11-10T19:40:14.095Z,97410.16
2018-11-10T19:42:44.876Z,97404.02
2018-11-10T19:45:14.335Z,97405.38
2018-11-10T19:47:44.213Z,97403.73
2018-11-10T19:50:13.845Z,97405.70
2018-11-10T19:52:42.940Z,97413.27
2018-11-10T19:55:14.194Z,97407.59
2018-11-10T19:57:44.124Z,97416.28
2018-11-10T20:00:16.947Z,97416.58
2018-11-10T20:02:46.971Z,97419.77
2018-11-10T20:05:18.056Z,97411.98
2018-11-10T20:07:47.069Z,97413.88
2018-11-10T20:10:16.397Z,97410.08
2018-11-10T20:12:46.170Z,97412.91
2018-11-10T20:15:17.339Z,97415.27
2018-11-10T20:17:46.880Z,97418.36
2018-11-10T20:20:17.655Z,97418.13
2018-11-10T20:22:48.402Z,97413.82
2018-11-10T20:25:19.266Z,97412.34
2018-11-10T20:27:48.259Z,97401.77
2018-11-10T20:30:18.637Z,97392.89
2018-11-10T20:32:48.119Z,97404.79
2018-11-10T20:35:17.099Z,97401.92
2018-11-10T20:37:46.775Z,97403.34
2018-11-10T20:40:16.925Z,97411.67
2018-11-10T20:42:46.307Z,97409.13
2018-11-10T20:45:17.096Z,97411.41
2018-11-10T20:47:47.097Z,97408.39
2018-11-10T20:50:17.285Z,97412.02
2018-11-10T20:52:46.566Z,97418.55
2018-11-10T20:55:16.010Z,97413.44
2018-11-10T20:57:45.114Z,97419.77
2018-11-10T21:00:15.932Z,97424.63
2018-11-10T21:02:45.600Z,97422.05
2018-11-10T21:05:15.381Z,97418.44
2018-11-10T21:07:44.741Z,97425.34
2018-11-10T21:10:16.424Z,97426.63
2018-11-10T21:12:46.301Z,97434.15
2018-11-10T21:15:15.917Z,97433.44
2018-11-10T21:17:45.287Z,97430.25
2018-11-10T21:20:15.595Z,97432.09
2018-11-10T21:22:45.353Z,97429.12
2018-11-10T21:25:16.640Z,97422.21
2018-11-10T21:27:46.232Z,97414.92
2018-11-10T21:30:17.272Z,97413.70
2018-11-10T21:32:46.753Z,97402.54
2018-11-10T21:35:15.883Z,97395.02
2018-11-10T21:37:45.151Z,97392.48
2018-11-10T21:40:15.629Z,97392.66
2018-11-10T21:42:44.798Z,97400.47
2018-11-10T21:45:14.831Z,97407.27
2018-11-10T21:47:44.117Z,97402.16
2018-11-10T21:50:15.287Z,97410.26
2018-11-10T21:52:45.233Z,97410.77
2018-11-10T21:55:16.507Z,97413.10
2018-11-10T21:57:46.308Z,97420.77
2018-11-10T22:00:17.266Z,97420.22
2018-11-10T22:02:53.111Z,97417.80
2018-11-10T22:05:22.172Z,97424.55
2018-11-10T22:07:51.397Z,97415.11
2018-11-10T22:10:20.546Z,97415.37
2018-11-10T22:12:49.701Z,97406.04
2018-11-10T22:15:21.016Z,97416.52
2018-11-10T22:17:50.181Z,97419.84
2018-11-10T22:20:20.386Z,97417.52
2018-11-10T22:22:50.474Z,97419.35
2018-11-10T22:25:19.945Z,97434.91
2018-11-10T22:27:51.147Z,97439.81
2018-11-10T22:30:21.225Z,97453.30
2018-11-10T22:32:50.687Z,97452.53
2018-11-10T22:35:19.586Z,97448.77
2018-11-10T22:37:48.623Z,97452.56
2018-11-10T22:40:19.309Z,97459.78
2018-11-10T22:42:48.556Z,97459.52
2018-11-10T22:45:19.588Z,97464.31
2018-11-10T22:47:48.605Z,97466.05
2018-11-10T22:50:19.039Z,97461.52
2018-11-10T22:52:48.093Z,97462.73
2018-11-10T22:55:17.197Z,97462.98
2018-11-10T22:57:46.128Z,97454.89
2018-11-10T23:00:21.362Z,97466.86
2018-11-10T23:02:52.452Z,97466.77
2018-11-10T23:05:21.869Z,97463.58
2018-11-10T23:07:51.145Z,97465.79
2018-11-10T23:10:20.999Z,97469.45
2018-11-10T23:12:50.626Z,97464.73
2018-11-10T23:15:19.403Z,97470.52
2018-11-10T23:17:49.102Z,97479.59
2018-11-10T23:20:18.844Z,97483.69
2018-11-10T23:22:48.505Z,97484.67
2018-11-10T23:25:18.070Z,97490.33
2018-11-10T23:27:47.741Z,97492.17
2018-11-10T23:30:19.699Z,97498.57
2018-11-10T23:32:49.205Z,97500.37
2018-11-10T23:35:18.088Z,97495.39
2018-11-10T23:37:46.811Z,97505.23
2018-11-10T23:40:16.428Z,97506.76
2018-11-10T23:42:45.231Z,97513.22
2018-11-10T23:45:14.644Z,97523.15
2018-11-10T23:47:44.511Z,97519.78
2018-11-10T23:50:14.647Z,97520.36
2018-11-10T23:52:43.491Z,97527.20
2018-11-10T23:55:13.095Z,97524.23
2018-11-10T23:57:42.406Z,97528.91
